sensor_id;sensor_type;location;lat;lon;timestamp;temperature;humidity
11399;DHT22;5755;48.116;11.608;2023-11-18T00:01:50;5.50;99.90
11399;DHT22;5755;48.116;11.608;2023-11-18T00:04:17;5.50;99.90
11399;DHT22;5755;48.116;11.608;2023-11-18T00:06:44;5.40;99.90
11399;DHT22;5755;48.116;11.608;2023-11-18T00:09:11;5.40;99.90
11399;DHT22;5755;48.116;11.608;2023-11-18T00:11:40;5.40;99.90
11399;DHT22;5755;48.116;11.608;2023-11-18T00:14:07;5.40;99.90
11399;DHT22;5755;48.116;11.608;2023-11-18T00:16:35;5.30;99.90
11399;DHT22;5755;48.116;11.608;2023-11-18T00:19:04;5.30;99.90
11399;DHT22;5755;48.116;11.608;2023-11-18T00:21:31;5.30;99.90
11399;DHT22;5755;48.116;11.608;2023-11-18T00:23:58;5.30;99.90
11399;DHT22;5755;48.116;11.608;2023-11-18T00:26:25;5.20;99.90
11399;DHT22;5755;48.116;11.608;2023-11-18T00:28:52;5.20;99.90
11399;DHT22;5755;48.116;11.608;2023-11-18T00:31:19;5.30;99.90
11399;DHT22;5755;48.116;11.608;2023-11-18T00:33:45;5.30;99.90
11399;DHT22;5755;48.116;11.608;2023-11-18T00:36:14;5.20;99.90
11399;DHT22;5755;48.116;11.608;2023-11-18T00:38:41;5.10;99.90
11399;DHT22;5755;48.116;11.608;2023-11-18T00:41:07;5.20;99.90
11399;DHT22;5755;48.116;11.608;2023-11-18T00:43:34;5.30;99.90
11399;DHT22;5755;48.116;11.608;2023-11-18T00:46:01;5.20;99.90
11399;DHT22;5755;48.116;11.608;2023-11-18T00:48:30;5.10;99.90
11399;DHT22;5755;48.116;11.608;2023-11-18T00:50:57;5.20;99.90
11399;DHT22;5755;48.116;11.608;2023-11-18T00:53:25;5.30;99.90
11399;DHT22;5755;48.116;11.608;2023-11-18T00:55:52;5.20;99.90
11399;DHT22;5755;48.116;11.608;2023-11-18T00:58:19;5.20;99.90
11399;DHT22;5755;48.116;11.608;2023-11-18T01:00:46;5.20;99.90
11399;DHT22;5755;48.116;11.608;2023-11-18T01:03:13;5.30;99.90
11399;DHT22;5755;48.116;11.608;2023-11-18T01:05:40;5.30;99.90
11399;DHT22;5755;48.116;11.608;2023-11-18T01:08:06;5.30;99.90
11399;DHT22;5755;48.116;11.608;2023-11-18T01:10:35;5.30;99.90
11399;DHT22;5755;48.116;11.608;2023-11-18T01:13:03;5.30;99.90
11399;DHT22;5755;48.116;11.608;2023-11-18T01:15:31;5.30;99.90
11399;DHT22;5755;48.116;11.608;2023-11-18T01:17:58;5.20;99.90
11399;DHT22;5755;48.116;11.608;2023-11-18T01:20:25;5.20;99.90
11399;DHT22;5755;48.116;11.608;2023-11-18T01:22:52;5.20;99.90
11399;DHT22;5755;48.116;11.608;2023-11-18T01:25:19;5.20;99.90
11399;DHT22;5755;48.116;11.608;2023-11-18T01:27:47;5.20;99.90
11399;DHT22;5755;48.116;11.608;2023-11-18T01:30:14;5.30;99.90
11399;DHT22;5755;48.116;11.608;2023-11-18T01:32:41;5.30;99.90
11399;DHT22;5755;48.116;11.608;2023-11-18T01:35:09;5.30;99.90
11399;DHT22;5755;48.116;11.608;2023-11-18T01:37:38;5.30;99.90
11399;DHT22;5755;48.116;11.608;2023-11-18T01:40:06;5.20;99.90
11399;DHT22;5755;48.116;11.608;2023-11-18T01:42:33;5.30;99.90
11399;DHT22;5755;48.116;11.608;2023-11-18T01:45:02;5.20;99.90
11399;DHT22;5755;48.116;11.608;2023-11-18T01:47:30;5.30;99.90
11399;DHT22;5755;48.116;11.608;2023-11-18T01:49:59;5.30;99.90
11399;DHT22;5755;48.116;11.608;2023-11-18T01:52:26;5.30;99.90
11399;DHT22;5755;48.116;11.608;2023-11-18T01:54:56;5.40;99.90
11399;DHT22;5755;48.116;11.608;2023-11-18T01:57:23;5.30;99.90
11399;DHT22;5755;48.116;11.608;2023-11-18T01:59:50;5.30;99.90
11399;DHT22;5755;48.116;11.608;2023-11-18T02:02:19;5.30;99.90
11399;DHT22;5755;48.116;11.608;2023-11-18T02:04:47;5.30;99.90
11399;DHT22;5755;48.116;11.608;2023-11-18T02:07:14;5.30;99.90
11399;DHT22;5755;48.116;11.608;2023-11-18T02:09:42;5.30;99.90
11399;DHT22;5755;48.116;11.608;2023-11-18T02:12:18;5.30;99.90
11399;DHT22;5755;48.116;11.608;2023-11-18T02:14:49;5.40;99.90
11399;DHT22;5755;48.116;11.608;2023-11-18T02:17:22;5.40;99.90
11399;DHT22;5755;48.116;11.608;2023-11-18T02:19:51;5.30;99.90
11399;DHT22;5755;48.116;11.608;2023-11-18T02:22:19;5.30;99.90
11399;DHT22;5755;48.116;11.608;2023-11-18T02:24:47;5.30;99.90
11399;DHT22;5755;48.116;11.608;2023-11-18T02:27:16;5.40;99.90
11399;DHT22;5755;48.116;11.608;2023-11-18T02:29:46;5.40;99.90
11399;DHT22;5755;48.116;11.608;2023-11-18T02:32:18;5.40;99.90
11399;DHT22;5755;48.116;11.608;2023-11-18T02:34:53;5.40;99.90
11399;DHT22;5755;48.116;11.608;2023-11-18T02:37:24;5.40;99.90
11399;DHT22;5755;48.116;11.608;2023-11-18T02:39:54;5.30;99.90
11399;DHT22;5755;48.116;11.608;2023-11-18T02:42:25;5.30;99.90
11399;DHT22;5755;48.116;11.608;2023-11-18T02:44:53;5.30;99.90
11399;DHT22;5755;48.116;11.608;2023-11-18T02:47:25;5.30;99.90
11399;DHT22;5755;48.116;11.608;2023-11-18T02:49:54;5.30;99.90
11399;DHT22;5755;48.116;11.608;2023-11-18T02:52:21;5.20;99.90
11399;DHT22;5755;48.116;11.608;2023-11-18T02:54:50;5.30;99.90
11399;DHT22;5755;48.116;11.608;2023-11-18T02:57:17;5.30;99.90
11399;DHT22;5755;48.116;11.608;2023-11-18T02:59:45;5.30;99.90
11399;DHT22;5755;48.116;11.608;2023-11-18T03:02:12;5.30;99.90
11399;DHT22;5755;48.116;11.608;2023-11-18T03:04:40;5.30;99.90
11399;DHT22;5755;48.116;11.608;2023-11-18T03:07:09;5.30;99.90
11399;DHT22;5755;48.116;11.608;2023-11-18T03:09:36;5.30;99.90
11399;DHT22;5755;48.116;11.608;2023-11-18T03:12:06;5.30;99.90
11399;DHT22;5755;48.116;11.608;2023-11-18T03:14:33;5.30;99.90
11399;DHT22;5755;48.116;11.608;2023-11-18T03:17:02;5.20;99.90
11399;DHT22;5755;48.116;11.608;2023-11-18T03:19:32;5.40;99.90
11399;DHT22;5755;48.116;11.608;2023-11-18T03:22:00;5.40;99.90
11399;DHT22;5755;48.116;11.608;2023-11-18T03:24:27;5.40;99.90
11399;DHT22;5755;48.116;11.608;2023-11-18T03:26:54;5.50;99.90
11399;DHT22;5755;48.116;11.608;2023-11-18T03:29:21;5.40;99.90
11399;DHT22;5755;48.116;11.608;2023-11-18T03:31:49;5.30;99.90
11399;DHT22;5755;48.116;11.608;2023-11-18T03:34:17;5.30;99.90
11399;DHT22;5755;48.116;11.608;2023-11-18T03:36:45;5.20;99.90
11399;DHT22;5755;48.116;11.608;2023-11-18T03:39:13;5.30;99.90
11399;DHT22;5755;48.116;11.608;2023-11-18T03:41:40;5.30;99.90
11399;DHT22;5755;48.116;11.608;2023-11-18T03:44:10;5.30;99.90
11399;DHT22;5755;48.116;11.608;2023-11-18T03:46:37;5.30;99.90
11399;DHT22;5755;48.116;11.608;2023-11-18T03:49:04;5.40;99.90
11399;DHT22;5755;48.116;11.608;2023-11-18T03:51:32;5.30;99.90
11399;DHT22;5755;48.116;11.608;2023-11-18T03:53:59;5.20;99.90
11399;DHT22;5755;48.116;11.608;2023-11-18T03:56:26;5.30;99.90
11399;DHT22;5755;48.116;11.608;2023-11-18T03:58:54;5.30;99.90
11399;DHT22;5755;48.116;11.608;2023-11-18T04:01:21;5.30;99.90
11399;DHT22;5755;48.116;11.608;2023-11-18T04:03:48;5.20;99.90
11399;DHT22;5755;48.116;11.608;2023-11-18T04:06:15;5.30;99.90
11399;DHT22;5755;48.116;11.608;2023-11-18T04:08:44;5.30;99.90
11399;DHT22;5755;48.116;11.608;2023-11-18T04:11:12;5.30;99.90
11399;DHT22;5755;48.116;11.608;2023-11-18T04:13:39;5.30;99.90
11399;DHT22;5755;48.116;11.608;2023-11-18T04:16:10;5.30;99.90
11399;DHT22;5755;48.116;11.608;2023-11-18T04:18:38;5.30;99.90
11399;DHT22;5755;48.116;11.608;2023-11-18T04:21:05;5.30;99.90
11399;DHT22;5755;48.116;11.608;2023-11-18T04:23:34;5.30;99.90
11399;DHT22;5755;48.116;11.608;2023-11-18T04:26:03;5.30;99.90
11399;DHT22;5755;48.116;11.608;2023-11-18T04:28:30;5.30;99.90
11399;DHT22;5755;48.116;11.608;2023-11-18T04:30:57;5.30;99.90
11399;DHT22;5755;48.116;11.608;2023-11-18T04:33:24;5.30;99.90
11399;DHT22;5755;48.116;11.608;2023-11-18T04:35:51;5.30;99.90
11399;DHT22;5755;48.116;11.608;2023-11-18T04:38:18;5.30;99.90
11399;DHT22;5755;48.116;11.608;2023-11-18T04:40:45;5.30;99.90
11399;DHT22;5755;48.116;11.608;2023-11-18T04:43:14;5.30;99.90
11399;DHT22;5755;48.116;11.608;2023-11-18T04:45:42;5.30;99.90
11399;DHT22;5755;48.116;11.608;2023-11-18T04:48:09;5.30;99.90
11399;DHT22;5755;48.116;11.608;2023-11-18T04:50:36;5.30;99.90
11399;DHT22;5755;48.116;11.608;2023-11-18T04:53:03;5.30;99.90
11399;DHT22;5755;48.116;11.608;2023-11-18T04:55:33;5.40;99.90
11399;DHT22;5755;48.116;11.608;2023-11-18T04:58:00;5.30;99.90
11399;DHT22;5755;48.116;11.608;2023-11-18T05:00:29;5.30;99.90
11399;DHT22;5755;48.116;11.608;2023-11-18T05:02:58;5.40;99.90
11399;DHT22;5755;48.116;11.608;2023-11-18T05:05:24;5.40;99.90
11399;DHT22;5755;48.116;11.608;2023-11-18T05:07:52;5.30;99.90
11399;DHT22;5755;48.116;11.608;2023-11-18T05:10:19;5.30;99.90
11399;DHT22;5755;48.116;11.608;2023-11-18T05:12:45;5.30;99.90
11399;DHT22;5755;48.116;11.608;2023-11-18T05:15:21;5.40;99.90
11399;DHT22;5755;48.116;11.608;2023-11-18T05:17:51;5.30;99.90
11399;DHT22;5755;48.116;11.608;2023-11-18T05:20:19;5.30;99.90
11399;DHT22;5755;48.116;11.608;2023-11-18T05:22:46;5.60;99.90
11399;DHT22;5755;48.116;11.608;2023-11-18T05:25:13;5.60;99.90
11399;DHT22;5755;48.116;11.608;2023-11-18T05:27:40;5.50;99.90
11399;DHT22;5755;48.116;11.608;2023-11-18T05:30:08;5.60;99.90
11399;DHT22;5755;48.116;11.608;2023-11-18T05:32:35;5.60;99.90
11399;DHT22;5755;48.116;11.608;2023-11-18T05:35:04;5.60;99.90
11399;DHT22;5755;48.116;11.608;2023-11-18T05:37:31;5.50;99.90
11399;DHT22;5755;48.116;11.608;2023-11-18T05:40:01;5.40;99.90
11399;DHT22;5755;48.116;11.608;2023-11-18T05:42:32;5.30;99.90
11399;DHT22;5755;48.116;11.608;2023-11-18T05:45:01;5.30;99.90
11399;DHT22;5755;48.116;11.608;2023-11-18T05:47:28;5.30;99.90
11399;DHT22;5755;48.116;11.608;2023-11-18T05:49:58;5.30;99.90
11399;DHT22;5755;48.116;11.608;2023-11-18T05:52:26;5.30;99.90
11399;DHT22;5755;48.116;11.608;2023-11-18T05:54:54;5.30;99.90
11399;DHT22;5755;48.116;11.608;2023-11-18T05:57:21;5.40;99.90
11399;DHT22;5755;48.116;11.608;2023-11-18T05:59:48;5.40;99.90
11399;DHT22;5755;48.116;11.608;2023-11-18T06:02:15;5.30;99.90
11399;DHT22;5755;48.116;11.608;2023-11-18T06:04:44;5.40;99.90
11399;DHT22;5755;48.116;11.608;2023-11-18T06:07:11;5.40;99.90
11399;DHT22;5755;48.116;11.608;2023-11-18T06:09:41;5.40;99.90
11399;DHT22;5755;48.116;11.608;2023-11-18T06:12:11;5.30;99.90
11399;DHT22;5755;48.116;11.608;2023-11-18T06:14:38;5.40;99.90
11399;DHT22;5755;48.116;11.608;2023-11-18T06:17:07;5.30;99.90
11399;DHT22;5755;48.116;11.608;2023-11-18T06:19:34;5.30;99.90
11399;DHT22;5755;48.116;11.608;2023-11-18T06:22:01;5.30;99.90
11399;DHT22;5755;48.116;11.608;2023-11-18T06:24:28;5.30;99.90
11399;DHT22;5755;48.116;11.608;2023-11-18T06:26:56;5.30;99.90
11399;DHT22;5755;48.116;11.608;2023-11-18T06:29:25;5.30;99.90
11399;DHT22;5755;48.116;11.608;2023-11-18T06:31:52;5.40;99.90
11399;DHT22;5755;48.116;11.608;2023-11-18T06:34:19;5.40;99.90
11399;DHT22;5755;48.116;11.608;2023-11-18T06:36:46;5.40;99.90
11399;DHT22;5755;48.116;11.608;2023-11-18T06:39:13;5.40;99.90
11399;DHT22;5755;48.116;11.608;2023-11-18T06:41:41;5.30;99.90
11399;DHT22;5755;48.116;11.608;2023-11-18T06:44:15;5.40;99.90
11399;DHT22;5755;48.116;11.608;2023-11-18T06:46:49;5.40;99.90
11399;DHT22;5755;48.116;11.608;2023-11-18T06:49:16;5.50;99.90
11399;DHT22;5755;48.116;11.608;2023-11-18T06:51:44;5.40;99.90
11399;DHT22;5755;48.116;11.608;2023-11-18T06:54:11;5.50;99.90
11399;DHT22;5755;48.116;11.608;2023-11-18T06:56:40;5.60;99.90
11399;DHT22;5755;48.116;11.608;2023-11-18T06:59:08;5.60;99.90
11399;DHT22;5755;48.116;11.608;2023-11-18T07:01:39;5.60;99.90
11399;DHT22;5755;48.116;11.608;2023-11-18T07:04:08;5.50;99.90
11399;DHT22;5755;48.116;11.608;2023-11-18T07:06:35;5.50;99.90
11399;DHT22;5755;48.116;11.608;2023-11-18T07:09:04;5.50;99.90
11399;DHT22;5755;48.116;11.608;2023-11-18T07:11:38;5.50;99.90
11399;DHT22;5755;48.116;11.608;2023-11-18T07:14:06;5.50;99.90
11399;DHT22;5755;48.116;11.608;2023-11-18T07:16:34;5.60;99.90
11399;DHT22;5755;48.116;11.608;2023-11-18T07:19:03;5.60;99.90
11399;DHT22;5755;48.116;11.608;2023-11-18T07:21:30;5.70;99.90
11399;DHT22;5755;48.116;11.608;2023-11-18T07:23:57;5.80;99.90
11399;DHT22;5755;48.116;11.608;2023-11-18T07:26:24;5.90;99.90
11399;DHT22;5755;48.116;11.608;2023-11-18T07:28:50;5.90;99.90
11399;DHT22;5755;48.116;11.608;2023-11-18T07:31:19;6.00;99.90
11399;DHT22;5755;48.116;11.608;2023-11-18T07:33:46;6.00;99.90
11399;DHT22;5755;48.116;11.608;2023-11-18T07:36:16;6.10;99.90
11399;DHT22;5755;48.116;11.608;2023-11-18T07:38:45;6.20;99.90
11399;DHT22;5755;48.116;11.608;2023-11-18T07:41:12;6.10;99.90
11399;DHT22;5755;48.116;11.608;2023-11-18T07:43:49;6.10;99.90
11399;DHT22;5755;48.116;11.608;2023-11-18T07:46:16;6.00;99.90
11399;DHT22;5755;48.116;11.608;2023-11-18T07:48:43;6.00;99.90
11399;DHT22;5755;48.116;11.608;2023-11-18T07:51:11;6.00;99.90
11399;DHT22;5755;48.116;11.608;2023-11-18T07:53:41;6.10;99.90
11399;DHT22;5755;48.116;11.608;2023-11-18T07:56:08;6.10;99.90
11399;DHT22;5755;48.116;11.608;2023-11-18T07:58:36;6.10;99.90
11399;DHT22;5755;48.116;11.608;2023-11-18T08:01:06;6.20;99.90
11399;DHT22;5755;48.116;11.608;2023-11-18T08:03:34;6.20;99.90
11399;DHT22;5755;48.116;11.608;2023-11-18T08:06:03;6.20;99.90
11399;DHT22;5755;48.116;11.608;2023-11-18T08:08:32;6.40;99.90
11399;DHT22;5755;48.116;11.608;2023-11-18T08:11:00;6.50;99.90
11399;DHT22;5755;48.116;11.608;2023-11-18T08:13:28;6.50;99.90
11399;DHT22;5755;48.116;11.608;2023-11-18T08:15:56;6.70;99.40
11399;DHT22;5755;48.116;11.608;2023-11-18T08:18:23;6.60;99.30
11399;DHT22;5755;48.116;11.608;2023-11-18T08:20:50;6.50;99.90
11399;DHT22;5755;48.116;11.608;2023-11-18T08:23:17;6.60;99.90
11399;DHT22;5755;48.116;11.608;2023-11-18T08:25:45;6.60;99.90
11399;DHT22;5755;48.116;11.608;2023-11-18T08:28:14;6.60;99.90
11399;DHT22;5755;48.116;11.608;2023-11-18T08:30:55;6.70;99.90
11399;DHT22;5755;48.116;11.608;2023-11-18T08:33:22;6.70;99.60
11399;DHT22;5755;48.116;11.608;2023-11-18T08:35:49;6.70;99.20
11399;DHT22;5755;48.116;11.608;2023-11-18T08:38:16;6.70;99.90
11399;DHT22;5755;48.116;11.608;2023-11-18T08:40:43;6.70;99.10
11399;DHT22;5755;48.116;11.608;2023-11-18T08:43:11;6.60;99.50
11399;DHT22;5755;48.116;11.608;2023-11-18T08:45:40;6.70;99.70
11399;DHT22;5755;48.116;11.608;2023-11-18T08:48:07;6.70;99.30
11399;DHT22;5755;48.116;11.608;2023-11-18T08:50:35;6.80;99.20
11399;DHT22;5755;48.116;11.608;2023-11-18T08:53:02;6.90;98.90
11399;DHT22;5755;48.116;11.608;2023-11-18T08:55:31;6.80;98.30
11399;DHT22;5755;48.116;11.608;2023-11-18T08:58:22;6.90;98.20
11399;DHT22;5755;48.116;11.608;2023-11-18T09:00:55;6.90;98.10
11399;DHT22;5755;48.116;11.608;2023-11-18T09:03:31;7.00;97.70
11399;DHT22;5755;48.116;11.608;2023-11-18T09:06:03;7.10;98.00
11399;DHT22;5755;48.116;11.608;2023-11-18T09:08:32;7.00;97.90
11399;DHT22;5755;48.116;11.608;2023-11-18T09:11:02;7.10;98.00
11399;DHT22;5755;48.116;11.608;2023-11-18T09:13:31;7.10;98.10
11399;DHT22;5755;48.116;11.608;2023-11-18T09:16:02;7.20;97.60
11399;DHT22;5755;48.116;11.608;2023-11-18T09:18:34;7.30;96.70
11399;DHT22;5755;48.116;11.608;2023-11-18T09:21:01;7.30;96.60
11399;DHT22;5755;48.116;11.608;2023-11-18T09:23:34;7.30;96.80
11399;DHT22;5755;48.116;11.608;2023-11-18T09:33:01;7.50;96.50
11399;DHT22;5755;48.116;11.608;2023-11-18T09:35:47;7.80;95.70
11399;DHT22;5755;48.116;11.608;2023-11-18T09:38:55;8.10;95.70
11399;DHT22;5755;48.116;11.608;2023-11-18T09:41:35;8.30;95.40
11399;DHT22;5755;48.116;11.608;2023-11-18T09:44:07;8.60;94.90
11399;DHT22;5755;48.116;11.608;2023-11-18T09:46:35;9.30;92.10
11399;DHT22;5755;48.116;11.608;2023-11-18T09:49:27;9.70;91.90
11399;DHT22;5755;48.116;11.608;2023-11-18T09:52:15;10.90;88.90
11399;DHT22;5755;48.116;11.608;2023-11-18T09:55:02;11.30;77.10
11399;DHT22;5755;48.116;11.608;2023-11-18T09:57:46;11.40;57.30
11399;DHT22;5755;48.116;11.608;2023-11-18T10:00:31;11.20;57.20
11399;DHT22;5755;48.116;11.608;2023-11-18T10:03:21;11.00;58.30
11399;DHT22;5755;48.116;11.608;2023-11-18T10:05:51;10.40;61.20
11399;DHT22;5755;48.116;11.608;2023-11-18T10:08:35;9.90;75.00
11399;DHT22;5755;48.116;11.608;2023-11-18T10:11:04;9.90;81.10
11399;DHT22;5755;48.116;11.608;2023-11-18T10:13:34;10.00;73.00
11399;DHT22;5755;48.116;11.608;2023-11-18T10:16:06;9.90;74.90
11399;DHT22;5755;48.116;11.608;2023-11-18T10:18:54;9.60;75.80
11399;DHT22;5755;48.116;11.608;2023-11-18T10:21:35;9.30;78.80
11399;DHT22;5755;48.116;11.608;2023-11-18T10:24:18;9.60;80.00
11399;DHT22;5755;48.116;11.608;2023-11-18T10:26:53;9.70;79.50
11399;DHT22;5755;48.116;11.608;2023-11-18T10:29:41;9.80;77.20
11399;DHT22;5755;48.116;11.608;2023-11-18T10:32:08;10.30;73.30
11399;DHT22;5755;48.116;11.608;2023-11-18T10:34:35;10.30;61.00
11399;DHT22;5755;48.116;11.608;2023-11-18T10:37:06;10.30;62.90
11399;DHT22;5755;48.116;11.608;2023-11-18T10:39:47;10.20;62.10
11399;DHT22;5755;48.116;11.608;2023-11-18T10:42:18;10.10;61.50
11399;DHT22;5755;48.116;11.608;2023-11-18T10:44:55;10.40;53.30
11399;DHT22;5755;48.116;11.608;2023-11-18T10:47:35;10.90;47.60
11399;DHT22;5755;48.116;11.608;2023-11-18T10:50:05;10.70;47.50
11399;DHT22;5755;48.116;11.608;2023-11-18T10:52:37;10.80;50.10
11399;DHT22;5755;48.116;11.608;2023-11-18T10:55:07;11.10;42.40
11399;DHT22;5755;48.116;11.608;2023-11-18T10:57:54;11.00;43.10
11399;DHT22;5755;48.116;11.608;2023-11-18T11:00:21;10.70;46.50
11399;DHT22;5755;48.116;11.608;2023-11-18T11:03:15;10.30;47.10
11399;DHT22;5755;48.116;11.608;2023-11-18T11:06:16;10.30;48.40
11399;DHT22;5755;48.116;11.608;2023-11-18T11:08:58;10.10;51.10
11399;DHT22;5755;48.116;11.608;2023-11-18T11:11:41;9.90;58.90
11399;DHT22;5755;48.116;11.608;2023-11-18T11:14:42;9.90;54.50
11399;DHT22;5755;48.116;11.608;2023-11-18T11:17:13;9.80;54.90
11399;DHT22;5755;48.116;11.608;2023-11-18T11:19:50;9.50;56.00
11399;DHT22;5755;48.116;11.608;2023-11-18T11:22:38;9.40;62.90
11399;DHT22;5755;48.116;11.608;2023-11-18T11:25:16;9.20;67.00
11399;DHT22;5755;48.116;11.608;2023-11-18T11:28:03;9.30;66.40
11399;DHT22;5755;48.116;11.608;2023-11-18T11:30:40;9.20;68.50
11399;DHT22;5755;48.116;11.608;2023-11-18T11:33:28;9.40;67.80
11399;DHT22;5755;48.116;11.608;2023-11-18T11:35:59;9.10;61.90
11399;DHT22;5755;48.116;11.608;2023-11-18T11:38:42;9.20;55.90
11399;DHT22;5755;48.116;11.608;2023-11-18T11:41:13;9.10;54.50
11399;DHT22;5755;48.116;11.608;2023-11-18T11:43:55;9.10;52.20
11399;DHT22;5755;48.116;11.608;2023-11-18T11:46:25;9.10;49.30
11399;DHT22;5755;48.116;11.608;2023-11-18T11:48:59;9.10;55.20
11399;DHT22;5755;48.116;11.608;2023-11-18T11:51:30;9.20;47.70
11399;DHT22;5755;48.116;11.608;2023-11-18T11:54:09;9.20;49.00
11399;DHT22;5755;48.116;11.608;2023-11-18T11:56:43;9.10;48.80
11399;DHT22;5755;48.116;11.608;2023-11-18T11:59:57;9.00;48.70
11399;DHT22;5755;48.116;11.608;2023-11-18T12:02:38;9.00;48.90
11399;DHT22;5755;48.116;11.608;2023-11-18T12:05:19;9.10;50.90
11399;DHT22;5755;48.116;11.608;2023-11-18T12:07:52;9.40;47.80
11399;DHT22;5755;48.116;11.608;2023-11-18T12:10:33;9.60;45.90
11399;DHT22;5755;48.116;11.608;2023-11-18T12:13:09;9.40;47.80
11399;DHT22;5755;48.116;11.608;2023-11-18T12:15:48;9.40;50.20
11399;DHT22;5755;48.116;11.608;2023-11-18T12:18:40;9.40;48.70
11399;DHT22;5755;48.116;11.608;2023-11-18T12:21:09;9.40;47.80
11399;DHT22;5755;48.116;11.608;2023-11-18T12:24:14;9.40;50.10
11399;DHT22;5755;48.116;11.608;2023-11-18T12:26:45;9.50;52.50
11399;DHT22;5755;48.116;11.608;2023-11-18T12:29:34;9.70;50.50
11399;DHT22;5755;48.116;11.608;2023-11-18T12:35:22;9.40;53.10
11399;DHT22;5755;48.116;11.608;2023-11-18T12:41:17;9.20;53.60
11399;DHT22;5755;48.116;11.608;2023-11-18T12:44:21;9.20;59.70
11399;DHT22;5755;48.116;11.608;2023-11-18T12:50:24;9.10;62.60
11399;DHT22;5755;48.116;11.608;2023-11-18T12:52:54;9.30;60.80
11399;DHT22;5755;48.116;11.608;2023-11-18T12:55:21;9.40;59.60
11399;DHT22;5755;48.116;11.608;2023-11-18T12:57:49;9.40;58.20
11399;DHT22;5755;48.116;11.608;2023-11-18T13:00:35;9.50;56.60
11399;DHT22;5755;48.116;11.608;2023-11-18T13:03:04;9.20;59.40
11399;DHT22;5755;48.116;11.608;2023-11-18T13:05:53;9.10;61.00
11399;DHT22;5755;48.116;11.608;2023-11-18T13:08:43;8.90;63.60
11399;DHT22;5755;48.116;11.608;2023-11-18T13:11:11;8.90;66.20
11399;DHT22;5755;48.116;11.608;2023-11-18T13:13:52;8.80;63.00
11399;DHT22;5755;48.116;11.608;2023-11-18T13:16:20;8.90;66.60
11399;DHT22;5755;48.116;11.608;2023-11-18T13:18:51;8.90;64.40
11399;DHT22;5755;48.116;11.608;2023-11-18T13:21:20;8.80;70.30
11399;DHT22;5755;48.116;11.608;2023-11-18T13:23:55;8.70;73.60
11399;DHT22;5755;48.116;11.608;2023-11-18T13:26:23;8.60;73.50
11399;DHT22;5755;48.116;11.608;2023-11-18T13:28:50;8.40;73.50
11399;DHT22;5755;48.116;11.608;2023-11-18T13:31:17;8.30;73.20
11399;DHT22;5755;48.116;11.608;2023-11-18T13:33:48;8.20;74.70
11399;DHT22;5755;48.116;11.608;2023-11-18T13:36:19;8.20;78.40
11399;DHT22;5755;48.116;11.608;2023-11-18T13:38:48;8.20;76.00
11399;DHT22;5755;48.116;11.608;2023-11-18T13:41:30;8.20;76.50
11399;DHT22;5755;48.116;11.608;2023-11-18T13:43:57;8.20;77.60
11399;DHT22;5755;48.116;11.608;2023-11-18T13:46:39;8.20;77.90
11399;DHT22;5755;48.116;11.608;2023-11-18T13:49:08;8.20;78.20
11399;DHT22;5755;48.116;11.608;2023-11-18T13:51:49;8.10;76.70
11399;DHT22;5755;48.116;11.608;2023-11-18T13:54:17;8.10;77.00
11399;DHT22;5755;48.116;11.608;2023-11-18T13:56:44;8.00;76.20
11399;DHT22;5755;48.116;11.608;2023-11-18T13:59:11;8.00;78.60
11399;DHT22;5755;48.116;11.608;2023-11-18T14:01:38;8.00;80.30
11399;DHT22;5755;48.116;11.608;2023-11-18T14:04:07;7.90;81.20
11399;DHT22;5755;48.116;11.608;2023-11-18T14:06:51;8.40;84.60
11399;DHT22;5755;48.116;11.608;2023-11-18T14:09:32;9.70;74.60
11399;DHT22;5755;48.116;11.608;2023-11-18T14:12:13;10.20;70.30
11399;DHT22;5755;48.116;11.608;2023-11-18T14:14:40;10.60;53.30
11399;DHT22;5755;48.116;11.608;2023-11-18T14:17:07;10.80;47.50
11399;DHT22;5755;48.116;11.608;2023-11-18T14:19:37;10.50;43.80
11399;DHT22;5755;48.116;11.608;2023-11-18T14:22:04;10.30;47.10
11399;DHT22;5755;48.116;11.608;2023-11-18T14:24:33;10.20;51.90
11399;DHT22;5755;48.116;11.608;2023-11-18T14:26:59;10.60;55.30
11399;DHT22;5755;48.116;11.608;2023-11-18T14:29:27;10.40;47.20
11399;DHT22;5755;48.116;11.608;2023-11-18T14:34:36;10.30;45.60
11399;DHT22;5755;48.116;11.608;2023-11-18T14:37:41;9.90;46.00
11399;DHT22;5755;48.116;11.608;2023-11-18T14:40:11;9.70;55.90
11399;DHT22;5755;48.116;11.608;2023-11-18T14:42:52;9.90;52.70
11399;DHT22;5755;48.116;11.608;2023-11-18T14:45:19;10.00;46.80
11399;DHT22;5755;48.116;11.608;2023-11-18T14:47:47;9.80;52.00
11399;DHT22;5755;48.116;11.608;2023-11-18T14:50:21;9.70;59.20
11399;DHT22;5755;48.116;11.608;2023-11-18T14:53:02;9.60;51.70
11399;DHT22;5755;48.116;11.608;2023-11-18T14:55:29;9.30;58.20
11399;DHT22;5755;48.116;11.608;2023-11-18T14:57:58;9.40;74.30
11399;DHT22;5755;48.116;11.608;2023-11-18T15:00:25;10.50;59.10
11399;DHT22;5755;48.116;11.608;2023-11-18T15:02:54;10.50;53.80
11399;DHT22;5755;48.116;11.608;2023-11-18T15:05:23;11.30;48.00
11399;DHT22;5755;48.116;11.608;2023-11-18T15:08:10;11.60;42.60
11399;DHT22;5755;48.116;11.608;2023-11-18T15:10:40;11.60;36.60
11399;DHT22;5755;48.116;11.608;2023-11-18T15:13:27;11.80;40.90
11399;DHT22;5755;48.116;11.608;2023-11-18T15:15:54;12.10;36.50
11399;DHT22;5755;48.116;11.608;2023-11-18T15:18:21;12.10;38.20
11399;DHT22;5755;48.116;11.608;2023-11-18T15:20:51;12.10;36.40
11399;DHT22;5755;48.116;11.608;2023-11-18T15:23:31;11.80;34.40
11399;DHT22;5755;48.116;11.608;2023-11-18T15:25:58;11.80;36.60
11399;DHT22;5755;48.116;11.608;2023-11-18T15:28:26;11.90;49.60
11399;DHT22;5755;48.116;11.608;2023-11-18T15:30:53;11.90;47.80
11399;DHT22;5755;48.116;11.608;2023-11-18T15:33:20;11.80;50.00
11399;DHT22;5755;48.116;11.608;2023-11-18T15:35:49;11.20;37.40
11399;DHT22;5755;48.116;11.608;2023-11-18T15:38:30;10.80;52.70
11399;DHT22;5755;48.116;11.608;2023-11-18T15:40:59;10.30;57.80
11399;DHT22;5755;48.116;11.608;2023-11-18T15:43:28;10.40;57.30
11399;DHT22;5755;48.116;11.608;2023-11-18T15:45:56;10.50;52.60
11399;DHT22;5755;48.116;11.608;2023-11-18T15:48:25;9.70;59.30
11399;DHT22;5755;48.116;11.608;2023-11-18T15:50:54;9.10;67.50
11399;DHT22;5755;48.116;11.608;2023-11-18T15:53:25;8.60;76.40
11399;DHT22;5755;48.116;11.608;2023-11-18T15:55:53;8.30;79.20
11399;DHT22;5755;48.116;11.608;2023-11-18T15:58:21;8.00;84.10
11399;DHT22;5755;48.116;11.608;2023-11-18T16:01:08;7.80;90.20
11399;DHT22;5755;48.116;11.608;2023-11-18T16:03:36;7.60;90.50
11399;DHT22;5755;48.116;11.608;2023-11-18T16:06:05;7.50;91.20
11399;DHT22;5755;48.116;11.608;2023-11-18T16:08:55;7.40;91.80
11399;DHT22;5755;48.116;11.608;2023-11-18T16:11:36;7.30;92.40
11399;DHT22;5755;48.116;11.608;2023-11-18T16:14:02;7.30;93.10
11399;DHT22;5755;48.116;11.608;2023-11-18T16:16:30;7.20;93.00
11399;DHT22;5755;48.116;11.608;2023-11-18T16:19:00;7.10;92.80
11399;DHT22;5755;48.116;11.608;2023-11-18T16:21:28;7.00;92.80
11399;DHT22;5755;48.116;11.608;2023-11-18T16:24:15;7.10;93.10
11399;DHT22;5755;48.116;11.608;2023-11-18T16:26:42;7.10;93.40
11399;DHT22;5755;48.116;11.608;2023-11-18T16:29:09;7.10;93.50
11399;DHT22;5755;48.116;11.608;2023-11-18T16:31:35;7.10;94.10